sensor_id;sensor_type;location;lat;lon;timestamp;P1;durP1;ratioP1;P2;durP2;ratioP2
11616;SDS011;5864;52.998;9.068;2023-02-24T00:01:14;9.70;;;3.60;;
11616;SDS011;5864;52.998;9.068;2023-02-24T00:04:08;15.30;;;3.47;;
11616;SDS011;5864;52.998;9.068;2023-02-24T00:06:55;12.67;;;3.03;;
11616;SDS011;5864;52.998;9.068;2023-02-24T00:09:42;9.27;;;2.70;;
11616;SDS011;5864;52.998;9.068;2023-02-24T00:12:28;10.27;;;3.50;;
11616;SDS011;5864;52.998;9.068;2023-02-24T00:15:14;16.40;;;3.27;;
11616;SDS011;5864;52.998;9.068;2023-02-24T00:18:00;9.77;;;3.03;;
11616;SDS011;5864;52.998;9.068;2023-02-24T00:20:50;8.67;;;2.80;;
11616;SDS011;5864;52.998;9.068;2023-02-24T00:23:39;7.90;;;2.67;;
11616;SDS011;5864;52.998;9.068;2023-02-24T00:26:27;14.30;;;2.97;;
11616;SDS011;5864;52.998;9.068;2023-02-24T00:29:13;9.53;;;3.17;;
11616;SDS011;5864;52.998;9.068;2023-02-24T00:31:58;9.43;;;3.43;;
11616;SDS011;5864;52.998;9.068;2023-02-24T00:34:49;7.37;;;2.27;;
11616;SDS011;5864;52.998;9.068;2023-02-24T00:37:34;9.20;;;2.80;;
11616;SDS011;5864;52.998;9.068;2023-02-24T00:40:20;8.50;;;2.70;;
11616;SDS011;5864;52.998;9.068;2023-02-24T00:43:08;14.00;;;4.27;;
11616;SDS011;5864;52.998;9.068;2023-02-24T00:45:53;12.17;;;2.63;;
11616;SDS011;5864;52.998;9.068;2023-02-24T00:48:40;9.10;;;2.43;;
11616;SDS011;5864;52.998;9.068;2023-02-24T00:51:28;8.77;;;2.67;;
11616;SDS011;5864;52.998;9.068;2023-02-24T00:54:14;9.70;;;2.50;;
11616;SDS011;5864;52.998;9.068;2023-02-24T00:57:01;8.43;;;2.30;;
11616;SDS011;5864;52.998;9.068;2023-02-24T00:59:47;8.93;;;2.57;;
11616;SDS011;5864;52.998;9.068;2023-02-24T01:02:35;6.40;;;2.67;;
11616;SDS011;5864;52.998;9.068;2023-02-24T01:05:21;8.00;;;2.50;;
11616;SDS011;5864;52.998;9.068;2023-02-24T01:08:07;8.83;;;2.60;;
11616;SDS011;5864;52.998;9.068;2023-02-24T01:10:56;8.20;;;2.50;;
11616;SDS011;5864;52.998;9.068;2023-02-24T01:14:03;14.17;;;2.80;;
11616;SDS011;5864;52.998;9.068;2023-02-24T01:16:50;10.93;;;2.80;;
11616;SDS011;5864;52.998;9.068;2023-02-24T01:19:37;11.27;;;2.63;;
11616;SDS011;5864;52.998;9.068;2023-02-24T01:22:23;6.47;;;2.27;;
11616;SDS011;5864;52.998;9.068;2023-02-24T01:25:09;11.10;;;2.63;;
11616;SDS011;5864;52.998;9.068;2023-02-24T01:27:54;7.60;;;2.40;;
11616;SDS011;5864;52.998;9.068;2023-02-24T01:30:41;8.63;;;2.40;;
11616;SDS011;5864;52.998;9.068;2023-02-24T01:33:28;9.33;;;2.33;;
11616;SDS011;5864;52.998;9.068;2023-02-24T01:36:17;6.90;;;2.37;;
11616;SDS011;5864;52.998;9.068;2023-02-24T01:39:05;6.60;;;2.40;;
11616;SDS011;5864;52.998;9.068;2023-02-24T01:41:53;7.23;;;2.33;;
11616;SDS011;5864;52.998;9.068;2023-02-24T01:45:03;7.13;;;2.50;;
11616;SDS011;5864;52.998;9.068;2023-02-24T01:47:57;7.87;;;2.10;;
11616;SDS011;5864;52.998;9.068;2023-02-24T01:50:47;4.70;;;2.23;;
11616;SDS011;5864;52.998;9.068;2023-02-24T01:53:35;9.40;;;2.00;;
11616;SDS011;5864;52.998;9.068;2023-02-24T01:56:22;4.33;;;2.00;;
11616;SDS011;5864;52.998;9.068;2023-02-24T01:59:07;6.73;;;2.07;;
11616;SDS011;5864;52.998;9.068;2023-02-24T02:01:54;5.37;;;2.10;;
11616;SDS011;5864;52.998;9.068;2023-02-24T02:04:48;7.23;;;1.90;;
11616;SDS011;5864;52.998;9.068;2023-02-24T02:07:38;5.37;;;2.00;;
11616;SDS011;5864;52.998;9.068;2023-02-24T02:10:24;8.00;;;2.07;;
11616;SDS011;5864;52.998;9.068;2023-02-24T02:13:12;5.27;;;1.70;;
11616;SDS011;5864;52.998;9.068;2023-02-24T02:19:26;6.83;;;2.23;;
11616;SDS011;5864;52.998;9.068;2023-02-24T02:25:55;9.93;;;1.97;;
11616;SDS011;5864;52.998;9.068;2023-02-24T02:29:10;5.90;;;1.87;;
11616;SDS011;5864;52.998;9.068;2023-02-24T02:32:16;5.10;;;1.60;;
11616;SDS011;5864;52.998;9.068;2023-02-24T02:35:37;6.33;;;1.57;;
11616;SDS011;5864;52.998;9.068;2023-02-24T02:38:31;7.73;;;1.87;;
11616;SDS011;5864;52.998;9.068;2023-02-24T02:41:23;3.47;;;1.53;;
11616;SDS011;5864;52.998;9.068;2023-02-24T02:44:13;6.33;;;1.80;;
11616;SDS011;5864;52.998;9.068;2023-02-24T02:47:08;8.90;;;1.70;;
11616;SDS011;5864;52.998;9.068;2023-02-24T02:49:58;12.13;;;2.37;;
11616;SDS011;5864;52.998;9.068;2023-02-24T02:52:54;6.57;;;1.50;;
11616;SDS011;5864;52.998;9.068;2023-02-24T02:55:44;4.57;;;1.70;;
11616;SDS011;5864;52.998;9.068;2023-02-24T02:58:33;8.07;;;2.07;;
11616;SDS011;5864;52.998;9.068;2023-02-24T03:01:24;4.47;;;2.00;;
11616;SDS011;5864;52.998;9.068;2023-02-24T03:04:13;5.40;;;1.97;;
11616;SDS011;5864;52.998;9.068;2023-02-24T03:07:01;11.20;;;2.20;;
11616;SDS011;5864;52.998;9.068;2023-02-24T03:09:50;6.47;;;1.80;;
11616;SDS011;5864;52.998;9.068;2023-02-24T03:12:39;5.43;;;1.50;;
11616;SDS011;5864;52.998;9.068;2023-02-24T03:15:27;5.57;;;1.73;;
11616;SDS011;5864;52.998;9.068;2023-02-24T03:18:17;4.73;;;1.80;;
11616;SDS011;5864;52.998;9.068;2023-02-24T03:21:12;3.60;;;1.53;;
11616;SDS011;5864;52.998;9.068;2023-02-24T03:24:01;4.90;;;1.70;;
11616;SDS011;5864;52.998;9.068;2023-02-24T03:26:51;5.57;;;2.10;;
11616;SDS011;5864;52.998;9.068;2023-02-24T03:29:42;10.23;;;1.87;;
11616;SDS011;5864;52.998;9.068;2023-02-24T03:32:33;5.83;;;1.50;;
11616;SDS011;5864;52.998;9.068;2023-02-24T03:35:26;6.00;;;1.63;;
11616;SDS011;5864;52.998;9.068;2023-02-24T03:38:14;6.67;;;1.83;;
11616;SDS011;5864;52.998;9.068;2023-02-24T03:41:00;6.57;;;1.80;;
11616;SDS011;5864;52.998;9.068;2023-02-24T03:43:47;5.83;;;1.30;;
11616;SDS011;5864;52.998;9.068;2023-02-24T03:46:34;4.33;;;1.40;;
11616;SDS011;5864;52.998;9.068;2023-02-24T03:49:20;6.20;;;1.93;;
11616;SDS011;5864;52.998;9.068;2023-02-24T03:52:08;7.70;;;1.83;;
11616;SDS011;5864;52.998;9.068;2023-02-24T03:55:13;5.37;;;2.57;;
11616;SDS011;5864;52.998;9.068;2023-02-24T03:58:08;6.53;;;1.80;;
11616;SDS011;5864;52.998;9.068;2023-02-24T04:01:03;4.93;;;1.70;;
11616;SDS011;5864;52.998;9.068;2023-02-24T04:03:58;6.43;;;1.90;;
11616;SDS011;5864;52.998;9.068;2023-02-24T04:06:49;7.27;;;1.60;;
11616;SDS011;5864;52.998;9.068;2023-02-24T04:09:42;5.37;;;1.73;;
11616;SDS011;5864;52.998;9.068;2023-02-24T04:12:36;7.33;;;1.60;;
11616;SDS011;5864;52.998;9.068;2023-02-24T04:15:26;6.33;;;2.17;;
11616;SDS011;5864;52.998;9.068;2023-02-24T04:18:22;6.37;;;2.00;;
11616;SDS011;5864;52.998;9.068;2023-02-24T04:21:13;7.90;;;2.13;;
11616;SDS011;5864;52.998;9.068;2023-02-24T04:24:01;5.80;;;1.80;;
11616;SDS011;5864;52.998;9.068;2023-02-24T04:26:54;5.83;;;1.33;;
11616;SDS011;5864;52.998;9.068;2023-02-24T04:29:43;4.83;;;1.50;;
11616;SDS011;5864;52.998;9.068;2023-02-24T04:32:34;5.17;;;1.60;;
11616;SDS011;5864;52.998;9.068;2023-02-24T04:35:21;5.57;;;1.50;;
11616;SDS011;5864;52.998;9.068;2023-02-24T04:38:07;5.30;;;1.70;;
11616;SDS011;5864;52.998;9.068;2023-02-24T04:40:52;7.33;;;2.03;;
11616;SDS011;5864;52.998;9.068;2023-02-24T04:43:38;5.73;;;1.60;;
11616;SDS011;5864;52.998;9.068;2023-02-24T04:46:23;8.33;;;1.63;;
11616;SDS011;5864;52.998;9.068;2023-02-24T04:49:08;2.37;;;1.40;;
11616;SDS011;5864;52.998;9.068;2023-02-24T04:51:55;6.60;;;1.70;;
11616;SDS011;5864;52.998;9.068;2023-02-24T04:54:41;6.07;;;1.90;;
11616;SDS011;5864;52.998;9.068;2023-02-24T04:57:27;3.40;;;1.50;;
11616;SDS011;5864;52.998;9.068;2023-02-24T05:00:13;5.00;;;1.60;;
11616;SDS011;5864;52.998;9.068;2023-02-24T05:03:04;5.87;;;1.87;;
11616;SDS011;5864;52.998;9.068;2023-02-24T05:05:51;7.43;;;2.20;;
11616;SDS011;5864;52.998;9.068;2023-02-24T05:08:41;5.67;;;1.63;;
11616;SDS011;5864;52.998;9.068;2023-02-24T05:11:27;7.77;;;1.80;;
11616;SDS011;5864;52.998;9.068;2023-02-24T05:14:18;5.10;;;1.73;;
11616;SDS011;5864;52.998;9.068;2023-02-24T05:17:05;4.63;;;1.70;;
11616;SDS011;5864;52.998;9.068;2023-02-24T05:19:51;5.23;;;1.77;;
11616;SDS011;5864;52.998;9.068;2023-02-24T05:22:54;6.90;;;1.83;;
11616;SDS011;5864;52.998;9.068;2023-02-24T05:25:41;4.57;;;1.70;;
11616;SDS011;5864;52.998;9.068;2023-02-24T05:28:27;9.57;;;2.00;;
11616;SDS011;5864;52.998;9.068;2023-02-24T05:31:15;7.67;;;1.70;;
11616;SDS011;5864;52.998;9.068;2023-02-24T05:34:04;5.80;;;1.80;;
11616;SDS011;5864;52.998;9.068;2023-02-24T05:36:51;4.97;;;1.80;;
11616;SDS011;5864;52.998;9.068;2023-02-24T05:39:36;8.27;;;2.27;;
11616;SDS011;5864;52.998;9.068;2023-02-24T05:42:23;6.37;;;1.87;;
11616;SDS011;5864;52.998;9.068;2023-02-24T05:45:10;6.90;;;1.73;;
11616;SDS011;5864;52.998;9.068;2023-02-24T05:47:56;5.73;;;1.70;;
11616;SDS011;5864;52.998;9.068;2023-02-24T05:50:50;5.53;;;3.20;;
11616;SDS011;5864;52.998;9.068;2023-02-24T05:53:37;5.80;;;1.83;;
11616;SDS011;5864;52.998;9.068;2023-02-24T05:56:25;6.40;;;1.93;;
11616;SDS011;5864;52.998;9.068;2023-02-24T05:59:12;9.43;;;2.53;;
11616;SDS011;5864;52.998;9.068;2023-02-24T06:02:01;6.20;;;1.90;;
11616;SDS011;5864;52.998;9.068;2023-02-24T06:04:49;4.00;;;1.87;;
11616;SDS011;5864;52.998;9.068;2023-02-24T06:07:37;3.87;;;1.60;;
11616;SDS011;5864;52.998;9.068;2023-02-24T06:10:22;5.60;;;1.80;;
11616;SDS011;5864;52.998;9.068;2023-02-24T06:13:08;4.40;;;1.90;;
11616;SDS011;5864;52.998;9.068;2023-02-24T06:15:55;6.57;;;1.90;;
11616;SDS011;5864;52.998;9.068;2023-02-24T06:18:41;5.30;;;1.70;;
11616;SDS011;5864;52.998;9.068;2023-02-24T06:21:27;5.07;;;1.87;;
11616;SDS011;5864;52.998;9.068;2023-02-24T06:24:13;7.07;;;2.07;;
11616;SDS011;5864;52.998;9.068;2023-02-24T06:27:03;4.47;;;2.23;;
11616;SDS011;5864;52.998;9.068;2023-02-24T06:29:52;4.97;;;2.00;;
11616;SDS011;5864;52.998;9.068;2023-02-24T06:32:40;5.90;;;1.50;;
11616;SDS011;5864;52.998;9.068;2023-02-24T06:35:27;8.37;;;1.77;;
11616;SDS011;5864;52.998;9.068;2023-02-24T06:38:13;6.20;;;1.53;;
11616;SDS011;5864;52.998;9.068;2023-02-24T06:40:58;8.27;;;1.97;;
11616;SDS011;5864;52.998;9.068;2023-02-24T06:43:46;7.67;;;2.00;;
11616;SDS011;5864;52.998;9.068;2023-02-24T06:46:33;4.13;;;1.70;;
11616;SDS011;5864;52.998;9.068;2023-02-24T06:49:20;8.27;;;1.77;;
11616;SDS011;5864;52.998;9.068;2023-02-24T06:52:06;5.00;;;1.97;;
11616;SDS011;5864;52.998;9.068;2023-02-24T06:54:53;12.10;;;2.43;;
11616;SDS011;5864;52.998;9.068;2023-02-24T06:57:39;8.53;;;2.00;;
11616;SDS011;5864;52.998;9.068;2023-02-24T07:00:27;4.87;;;1.70;;
11616;SDS011;5864;52.998;9.068;2023-02-24T07:03:21;5.83;;;1.83;;
11616;SDS011;5864;52.998;9.068;2023-02-24T07:06:09;7.77;;;1.90;;
11616;SDS011;5864;52.998;9.068;2023-02-24T07:09:04;6.47;;;1.80;;
11616;SDS011;5864;52.998;9.068;2023-02-24T07:11:53;4.67;;;1.93;;
11616;SDS011;5864;52.998;9.068;2023-02-24T07:14:39;6.80;;;2.03;;
11616;SDS011;5864;52.998;9.068;2023-02-24T07:17:25;2.57;;;1.50;;
11616;SDS011;5864;52.998;9.068;2023-02-24T07:20:11;3.97;;;1.83;;
11616;SDS011;5864;52.998;9.068;2023-02-24T07:23:09;4.43;;;2.03;;
11616;SDS011;5864;52.998;9.068;2023-02-24T07:25:55;7.57;;;2.03;;
11616;SDS011;5864;52.998;9.068;2023-02-24T07:28:42;7.37;;;1.87;;
11616;SDS011;5864;52.998;9.068;2023-02-24T07:31:29;2.73;;;1.67;;
11616;SDS011;5864;52.998;9.068;2023-02-24T07:34:15;4.43;;;1.67;;
11616;SDS011;5864;52.998;9.068;2023-02-24T07:37:06;7.50;;;2.63;;
11616;SDS011;5864;52.998;9.068;2023-02-24T07:39:53;4.13;;;1.90;;
11616;SDS011;5864;52.998;9.068;2023-02-24T07:42:39;6.67;;;2.20;;
11616;SDS011;5864;52.998;9.068;2023-02-24T07:45:24;7.27;;;2.47;;
11616;SDS011;5864;52.998;9.068;2023-02-24T07:48:11;8.47;;;2.73;;
11616;SDS011;5864;52.998;9.068;2023-02-24T07:50:57;9.40;;;2.50;;
11616;SDS011;5864;52.998;9.068;2023-02-24T07:53:43;6.43;;;1.90;;
11616;SDS011;5864;52.998;9.068;2023-02-24T07:56:33;5.03;;;2.33;;
11616;SDS011;5864;52.998;9.068;2023-02-24T07:59:29;8.20;;;2.60;;
11616;SDS011;5864;52.998;9.068;2023-02-24T08:02:16;7.70;;;3.17;;
11616;SDS011;5864;52.998;9.068;2023-02-24T08:05:03;7.77;;;2.93;;
11616;SDS011;5864;52.998;9.068;2023-02-24T08:07:51;6.07;;;2.73;;
11616;SDS011;5864;52.998;9.068;2023-02-24T08:10:39;5.90;;;2.83;;
11616;SDS011;5864;52.998;9.068;2023-02-24T08:13:26;6.67;;;3.07;;
11616;SDS011;5864;52.998;9.068;2023-02-24T08:16:20;7.10;;;2.80;;
11616;SDS011;5864;52.998;9.068;2023-02-24T08:19:06;7.53;;;2.80;;
11616;SDS011;5864;52.998;9.068;2023-02-24T08:21:55;8.43;;;3.13;;
11616;SDS011;5864;52.998;9.068;2023-02-24T08:24:53;7.63;;;2.70;;
11616;SDS011;5864;52.998;9.068;2023-02-24T08:27:43;8.97;;;2.90;;
11616;SDS011;5864;52.998;9.068;2023-02-24T08:30:36;9.80;;;3.17;;
11616;SDS011;5864;52.998;9.068;2023-02-24T08:33:27;9.47;;;3.00;;
11616;SDS011;5864;52.998;9.068;2023-02-24T08:36:14;8.53;;;2.93;;
11616;SDS011;5864;52.998;9.068;2023-02-24T08:39:04;6.63;;;2.43;;
11616;SDS011;5864;52.998;9.068;2023-02-24T08:41:49;6.73;;;2.80;;
11616;SDS011;5864;52.998;9.068;2023-02-24T08:44:37;9.77;;;3.10;;
11616;SDS011;5864;52.998;9.068;2023-02-24T08:47:24;9.67;;;2.90;;
11616;SDS011;5864;52.998;9.068;2023-02-24T08:50:14;8.83;;;3.37;;
11616;SDS011;5864;52.998;9.068;2023-02-24T08:53:00;7.77;;;2.87;;
11616;SDS011;5864;52.998;9.068;2023-02-24T08:55:45;7.67;;;2.73;;
11616;SDS011;5864;52.998;9.068;2023-02-24T08:58:34;9.23;;;3.13;;
11616;SDS011;5864;52.998;9.068;2023-02-24T09:01:25;5.53;;;2.90;;
11616;SDS011;5864;52.998;9.068;2023-02-24T09:04:18;4.87;;;2.93;;
11616;SDS011;5864;52.998;9.068;2023-02-24T09:07:04;5.20;;;3.40;;
11616;SDS011;5864;52.998;9.068;2023-02-24T09:09:57;6.67;;;2.80;;
11616;SDS011;5864;52.998;9.068;2023-02-24T09:12:43;5.60;;;2.80;;
11616;SDS011;5864;52.998;9.068;2023-02-24T09:15:30;7.43;;;2.67;;
11616;SDS011;5864;52.998;9.068;2023-02-24T09:18:23;7.03;;;3.30;;
11616;SDS011;5864;52.998;9.068;2023-02-24T09:21:14;5.50;;;2.40;;
11616;SDS011;5864;52.998;9.068;2023-02-24T09:24:19;6.07;;;2.93;;
11616;SDS011;5864;52.998;9.068;2023-02-24T09:27:11;2.97;;;2.30;;
11616;SDS011;5864;52.998;9.068;2023-02-24T09:29:59;3.67;;;2.23;;
11616;SDS011;5864;52.998;9.068;2023-02-24T09:32:51;7.83;;;2.40;;
11616;SDS011;5864;52.998;9.068;2023-02-24T09:35:44;4.40;;;2.87;;
11616;SDS011;5864;52.998;9.068;2023-02-24T09:38:32;6.23;;;2.30;;
11616;SDS011;5864;52.998;9.068;2023-02-24T09:41:35;8.40;;;2.80;;
11616;SDS011;5864;52.998;9.068;2023-02-24T09:44:42;3.30;;;2.90;;
11616;SDS011;5864;52.998;9.068;2023-02-24T09:47:32;6.70;;;4.20;;
11616;SDS011;5864;52.998;9.068;2023-02-24T09:50:38;5.30;;;3.13;;
11616;SDS011;5864;52.998;9.068;2023-02-24T09:53:45;4.77;;;3.23;;
11616;SDS011;5864;52.998;9.068;2023-02-24T09:56:35;6.50;;;3.50;;
11616;SDS011;5864;52.998;9.068;2023-02-24T09:59:26;4.87;;;3.50;;
11616;SDS011;5864;52.998;9.068;2023-02-24T10:02:19;8.10;;;4.13;;
11616;SDS011;5864;52.998;9.068;2023-02-24T10:05:16;5.93;;;3.67;;
11616;SDS011;5864;52.998;9.068;2023-02-24T10:08:11;7.63;;;3.73;;
11616;SDS011;5864;52.998;9.068;2023-02-24T10:11:03;5.87;;;4.10;;
11616;SDS011;5864;52.998;9.068;2023-02-24T10:13:53;9.67;;;4.97;;
11616;SDS011;5864;52.998;9.068;2023-02-24T10:16:42;8.33;;;5.30;;
11616;SDS011;5864;52.998;9.068;2023-02-24T10:19:36;7.33;;;5.13;;
11616;SDS011;5864;52.998;9.068;2023-02-24T10:22:29;9.57;;;5.57;;
11616;SDS011;5864;52.998;9.068;2023-02-24T10:25:37;7.57;;;4.60;;
11616;SDS011;5864;52.998;9.068;2023-02-24T10:28:28;6.40;;;4.60;;
11616;SDS011;5864;52.998;9.068;2023-02-24T10:31:24;8.47;;;5.03;;
11616;SDS011;5864;52.998;9.068;2023-02-24T10:34:18;5.27;;;4.57;;
11616;SDS011;5864;52.998;9.068;2023-02-24T10:37:10;8.07;;;4.67;;
11616;SDS011;5864;52.998;9.068;2023-02-24T10:39:57;8.00;;;4.57;;
11616;SDS011;5864;52.998;9.068;2023-02-24T10:43:01;6.73;;;4.60;;
11616;SDS011;5864;52.998;9.068;2023-02-24T10:45:54;9.00;;;5.37;;
11616;SDS011;5864;52.998;9.068;2023-02-24T10:48:52;8.13;;;5.70;;
11616;SDS011;5864;52.998;9.068;2023-02-24T10:51:46;8.73;;;6.37;;
11616;SDS011;5864;52.998;9.068;2023-02-24T10:54:34;9.93;;;6.70;;
11616;SDS011;5864;52.998;9.068;2023-02-24T10:57:48;8.60;;;6.30;;
11616;SDS011;5864;52.998;9.068;2023-02-24T11:00:38;9.20;;;6.00;;
11616;SDS011;5864;52.998;9.068;2023-02-24T11:03:49;7.10;;;5.57;;
11616;SDS011;5864;52.998;9.068;2023-02-24T11:07:05;4.83;;;4.10;;
11616;SDS011;5864;52.998;9.068;2023-02-24T11:10:07;4.03;;;3.30;;
11616;SDS011;5864;52.998;9.068;2023-02-24T11:12:58;4.97;;;3.73;;
11616;SDS011;5864;52.998;9.068;2023-02-24T11:16:02;5.57;;;3.30;;
11616;SDS011;5864;52.998;9.068;2023-02-24T11:19:11;4.47;;;3.10;;
11616;SDS011;5864;52.998;9.068;2023-02-24T11:21:56;3.93;;;2.83;;
11616;SDS011;5864;52.998;9.068;2023-02-24T11:24:44;3.30;;;3.00;;
11616;SDS011;5864;52.998;9.068;2023-02-24T11:27:30;3.03;;;2.57;;
11616;SDS011;5864;52.998;9.068;2023-02-24T11:30:19;3.47;;;2.90;;
11616;SDS011;5864;52.998;9.068;2023-02-24T11:33:17;3.87;;;3.00;;
11616;SDS011;5864;52.998;9.068;2023-02-24T11:36:15;4.87;;;3.17;;
11616;SDS011;5864;52.998;9.068;2023-02-24T11:39:09;6.20;;;3.20;;
11616;SDS011;5864;52.998;9.068;2023-02-24T11:42:12;4.37;;;3.10;;
11616;SDS011;5864;52.998;9.068;2023-02-24T11:45:03;4.53;;;3.23;;
11616;SDS011;5864;52.998;9.068;2023-02-24T11:47:57;3.57;;;3.20;;
11616;SDS011;5864;52.998;9.068;2023-02-24T11:50:48;4.03;;;3.10;;
11616;SDS011;5864;52.998;9.068;2023-02-24T11:53:42;5.70;;;3.60;;
11616;SDS011;5864;52.998;9.068;2023-02-24T11:56:33;4.00;;;2.93;;
11616;SDS011;5864;52.998;9.068;2023-02-24T11:59:27;3.87;;;3.37;;
11616;SDS011;5864;52.998;9.068;2023-02-24T12:02:15;4.67;;;3.10;;
11616;SDS011;5864;52.998;9.068;2023-02-24T12:05:08;3.80;;;3.10;;
11616;SDS011;5864;52.998;9.068;2023-02-24T12:08:00;4.10;;;3.30;;
11616;SDS011;5864;52.998;9.068;2023-02-24T12:10:52;3.73;;;3.33;;
11616;SDS011;5864;52.998;9.068;2023-02-24T12:13:43;4.00;;;3.40;;
11616;SDS011;5864;52.998;9.068;2023-02-24T12:16:34;5.20;;;4.00;;
11616;SDS011;5864;52.998;9.068;2023-02-24T12:19:30;3.87;;;3.20;;
11616;SDS011;5864;52.998;9.068;2023-02-24T12:22:20;5.80;;;3.70;;
11616;SDS011;5864;52.998;9.068;2023-02-24T12:25:11;4.80;;;3.10;;
11616;SDS011;5864;52.998;9.068;2023-02-24T12:28:02;5.93;;;3.47;;
11616;SDS011;5864;52.998;9.068;2023-02-24T12:30:58;4.60;;;3.30;;
11616;SDS011;5864;52.998;9.068;2023-02-24T12:33:55;4.63;;;3.43;;
11616;SDS011;5864;52.998;9.068;2023-02-24T12:37:09;5.63;;;3.33;;
11616;SDS011;5864;52.998;9.068;2023-02-24T12:40:11;4.07;;;3.30;;
11616;SDS011;5864;52.998;9.068;2023-02-24T12:43:09;5.73;;;4.00;;
11616;SDS011;5864;52.998;9.068;2023-02-24T12:46:05;4.77;;;3.60;;
11616;SDS011;5864;52.998;9.068;2023-02-24T12:49:09;5.63;;;3.60;;
11616;SDS011;5864;52.998;9.068;2023-02-24T12:52:06;5.43;;;3.90;;
11616;SDS011;5864;52.998;9.068;2023-02-24T12:55:05;4.63;;;4.17;;
11616;SDS011;5864;52.998;9.068;2023-02-24T12:57:57;5.37;;;3.30;;
11616;SDS011;5864;52.998;9.068;2023-02-24T13:00:56;4.60;;;3.30;;
11616;SDS011;5864;52.998;9.068;2023-02-24T13:06:59;6.80;;;3.67;;
11616;SDS011;5864;52.998;9.068;2023-02-24T13:09:56;5.47;;;4.00;;
11616;SDS011;5864;52.998;9.068;2023-02-24T13:12:55;7.93;;;4.03;;
11616;SDS011;5864;52.998;9.068;2023-02-24T13:15:51;9.60;;;4.53;;
11616;SDS011;5864;52.998;9.068;2023-02-24T13:18:38;9.23;;;4.57;;
11616;SDS011;5864;52.998;9.068;2023-02-24T13:21:24;9.90;;;4.83;;
11616;SDS011;5864;52.998;9.068;2023-02-24T13:24:16;8.57;;;4.63;;
11616;SDS011;5864;52.998;9.068;2023-02-24T13:27:18;6.27;;;5.10;;
11616;SDS011;5864;52.998;9.068;2023-02-24T13:30:22;11.43;;;4.87;;
11616;SDS011;5864;52.998;9.068;2023-02-24T13:33:21;12.47;;;4.40;;
11616;SDS011;5864;52.998;9.068;2023-02-24T13:36:12;9.10;;;4.87;;
11616;SDS011;5864;52.998;9.068;2023-02-24T13:39:03;10.57;;;5.17;;
11616;SDS011;5864;52.998;9.068;2023-02-24T13:41:59;10.30;;;5.00;;
11616;SDS011;5864;52.998;9.068;2023-02-24T13:44:47;10.33;;;5.37;;
11616;SDS011;5864;52.998;9.068;2023-02-24T13:47:39;10.07;;;5.20;;
11616;SDS011;5864;52.998;9.068;2023-02-24T13:50:53;7.07;;;4.70;;
11616;SDS011;5864;52.998;9.068;2023-02-24T13:53:58;9.90;;;4.93;;
11616;SDS011;5864;52.998;9.068;2023-02-24T13:56:55;6.83;;;4.40;;
11616;SDS011;5864;52.998;9.068;2023-02-24T13:59:53;9.67;;;4.93;;
11616;SDS011;5864;52.998;9.068;2023-02-24T14:02:47;9.83;;;5.00;;
11616;SDS011;5864;52.998;9.068;2023-02-24T14:05:35;9.50;;;4.70;;
11616;SDS011;5864;52.998;9.068;2023-02-24T14:08:24;6.60;;;4.30;;
11616;SDS011;5864;52.998;9.068;2023-02-24T14:11:16;8.47;;;4.30;;
11616;SDS011;5864;52.998;9.068;2023-02-24T14:14:05;9.53;;;4.57;;
11616;SDS011;5864;52.998;9.068;2023-02-24T14:16:56;7.87;;;4.40;;
11616;SDS011;5864;52.998;9.068;2023-02-24T14:19:43;8.73;;;5.00;;
11616;SDS011;5864;52.998;9.068;2023-02-24T14:22:28;8.87;;;4.30;;
11616;SDS011;5864;52.998;9.068;2023-02-24T14:25:15;9.63;;;4.47;;
11616;SDS011;5864;52.998;9.068;2023-02-24T14:28:03;9.30;;;4.70;;
11616;SDS011;5864;52.998;9.068;2023-02-24T14:30:51;9.77;;;4.80;;
11616;SDS011;5864;52.998;9.068;2023-02-24T14:33:37;8.57;;;3.50;;
11616;SDS011;5864;52.998;9.068;2023-02-24T14:36:25;11.13;;;3.87;;
11616;SDS011;5864;52.998;9.068;2023-02-24T14:39:14;11.40;;;3.90;;
11616;SDS011;5864;52.998;9.068;2023-02-24T14:42:10;14.47;;;4.30;;
11616;SDS011;5864;52.998;9.068;2023-02-24T14:44:59;14.40;;;4.03;;
11616;SDS011;5864;52.998;9.068;2023-02-24T14:47:45;10.13;;;3.60;;
11616;SDS011;5864;52.998;9.068;2023-02-24T14:50:31;10.57;;;3.87;;
11616;SDS011;5864;52.998;9.068;2023-02-24T14:53:17;8.40;;;3.73;;
11616;SDS011;5864;52.998;9.068;2023-02-24T14:56:08;15.17;;;4.97;;
11616;SDS011;5864;52.998;9.068;2023-02-24T14:58:57;10.13;;;4.07;;
11616;SDS011;5864;52.998;9.068;2023-02-24T15:01:48;10.27;;;4.53;;
11616;SDS011;5864;52.998;9.068;2023-02-24T15:04:36;13.87;;;4.20;;
11616;SDS011;5864;52.998;9.068;2023-02-24T15:07:28;8.50;;;3.00;;
11616;SDS011;5864;52.998;9.068;2023-02-24T15:10:19;10.97;;;4.10;;
11616;SDS011;5864;52.998;9.068;2023-02-24T15:13:09;8.13;;;3.03;;
11616;SDS011;5864;52.998;9.068;2023-02-24T15:16:00;11.73;;;3.43;;
11616;SDS011;5864;52.998;9.068;2023-02-24T15:18:51;11.30;;;2.70;;
11616;SDS011;5864;52.998;9.068;2023-02-24T15:21:38;8.83;;;3.10;;
11616;SDS011;5864;52.998;9.068;2023-02-24T15:24:27;13.07;;;3.50;;
11616;SDS011;5864;52.998;9.068;2023-02-24T15:27:24;8.13;;;2.80;;
11616;SDS011;5864;52.998;9.068;2023-02-24T15:30:24;8.40;;;2.90;;
11616;SDS011;5864;52.998;9.068;2023-02-24T15:33:13;6.27;;;2.50;;
11616;SDS011;5864;52.998;9.068;2023-02-24T15:36:08;7.27;;;2.57;;
11616;SDS011;5864;52.998;9.068;2023-02-24T15:38:57;7.63;;;2.10;;
11616;SDS011;5864;52.998;9.068;2023-02-24T15:41:45;5.10;;;2.13;;
11616;SDS011;5864;52.998;9.068;2023-02-24T15:44:34;7.63;;;2.03;;
11616;SDS011;5864;52.998;9.068;2023-02-24T15:47:20;7.80;;;2.27;;
11616;SDS011;5864;52.998;9.068;2023-02-24T15:50:08;7.53;;;2.53;;
11616;SDS011;5864;52.998;9.068;2023-02-24T15:52:56;4.90;;;1.93;;
11616;SDS011;5864;52.998;9.068;2023-02-24T15:55:43;4.40;;;1.70;;
11616;SDS011;5864;52.998;9.068;2023-02-24T15:58:30;4.10;;;1.77;;
11616;SDS011;5864;52.998;9.068;2023-02-24T16:01:15;5.27;;;1.80;;
11616;SDS011;5864;52.998;9.068;2023-02-24T16:04:01;4.00;;;1.57;;
11616;SDS011;5864;52.998;9.068;2023-02-24T16:06:48;3.57;;;1.67;;
11616;SDS011;5864;52.998;9.068;2023-02-24T16:09:39;3.37;;;1.50;;
11616;SDS011;5864;52.998;9.068;2023-02-24T16:12:26;4.63;;;1.77;;
11616;SDS011;5864;52.998;9.068;2023-02-24T16:15:17;8.47;;;1.80;;
11616;SDS011;5864;52.998;9.068;2023-02-24T16:18:08;2.20;;;1.57;;
11616;SDS011;5864;52.998;9.068;2023-02-24T16:21:01;5.30;;;1.90;;
11616;SDS011;5864;52.998;9.068;2023-02-24T16:23:47;6.90;;;1.93;;
11616;SDS011;5864;52.998;9.068;2023-02-24T16:26:36;4.33;;;1.80;;
11616;SDS011;5864;52.998;9.068;2023-02-24T16:29:23;4.03;;;1.50;;
11616;SDS011;5864;52.998;9.068;2023-02-24T16:32:09;3.63;;;1.40;;
11616;SDS011;5864;52.998;9.068;2023-02-24T16:34:55;7.57;;;1.90;;
11616;SDS011;5864;52.998;9.068;2023-02-24T16:37:41;12.17;;;2.17;;
11616;SDS011;5864;52.998;9.068;2023-02-24T16:40:31;6.17;;;2.43;;
11616;SDS011;5864;52.998;9.068;2023-02-24T16:43:22;8.07;;;2.30;;
11616;SDS011;5864;52.998;9.068;2023-02-24T16:46:10;7.30;;;2.80;;
11616;SDS011;5864;52.998;9.068;2023-02-24T16:48:58;7.37;;;2.70;;
11616;SDS011;5864;52.998;9.068;2023-02-24T16:51:43;2.67;;;1.50;;
11616;SDS011;5864;52.998;9.068;2023-02-24T16:54:30;4.53;;;1.77;;
11616;SDS011;5864;52.998;9.068;2023-02-24T16:57:15;6.00;;;2.30;;
11616;SDS011;5864;52.998;9.068;2023-02-24T17:00:04;8.67;;;2.10;;
11616;SDS011;5864;52.998;9.068;2023-02-24T17:02:51;9.73;;;1.97;;
11616;SDS011;5864;52.998;9.068;2023-02-24T17:05:38;9.43;;;2.67;;
11616;SDS011;5864;52.998;9.068;2023-02-24T17:08:23;6.07;;;1.80;;
11616;SDS011;5864;52.998;9.068;2023-02-24T17:11:10;11.10;;;2.63;;
11616;SDS011;5864;52.998;9.068;2023-02-24T17:13:57;7.87;;;2.60;;
11616;SDS011;5864;52.998;9.068;2023-02-24T17:16:44;13.73;;;5.00;;
11616;SDS011;5864;52.998;9.068;2023-02-24T17:19:30;12.47;;;3.67;;
11616;SDS011;5864;52.998;9.068;2023-02-24T17:22:17;8.60;;;3.37;;
11616;SDS011;5864;52.998;9.068;2023-02-24T17:25:03;14.10;;;4.07;;
11616;SDS011;5864;52.998;9.068;2023-02-24T17:27:51;12.93;;;3.83;;
11616;SDS011;5864;52.998;9.068;2023-02-24T17:30:37;14.53;;;3.47;;
11616;SDS011;5864;52.998;9.068;2023-02-24T17:33:26;14.37;;;4.10;;